Time;durP1;ratioP1;P1;durP2;ratioP2;P2;SDS_P1;SDS_P2;PMS_P1;PMS_P2;Temp;Humidity;BMP_temperature;BMP_pressure;BME280_temperature;BME280_humidity;BME280_pressure;Samples;Min_cycle;Max_cycle;Signal;HPM_P1;HPM_P2
2021/07/02 00:01:17;;;;;;;6.13;4.10;;;;;;;;;;5045428;28;20244;-75
2021/07/02 00:03:44;;;;;;;6.33;3.87;;;;;;;;;;5044583;28;20211;-74
2021/07/02 00:06:11;;;;;;;8.30;3.90;;;;;;;;;;5047485;28;20318;-73
2021/07/02 00:08:38;;;;;;;6.63;4.30;;;;;;;;;;5047006;28;20207;-75
2021/07/02 00:11:05;;;;;;;6.43;4.00;;;;;;;;;;5047318;28;20414;-73
2021/07/02 00:13:32;;;;;;;7.03;4.17;;;;;;;;;;5050891;28;20195;-74
2021/07/02 00:16:00;;;;;;;6.73;4.17;;;;;;;;;;5048257;28;20222;-74
2021/07/02 00:18:28;;;;;;;6.07;3.90;;;;;;;;;;5052136;28;20809;-73
2021/07/02 00:20:55;;;;;;;6.33;4.20;;;;;;;;;;5048085;28;20680;-74
2021/07/02 00:23:22;;;;;;;9.70;4.43;;;;;;;;;;5050598;28;20564;-74
2021/07/02 00:25:50;;;;;;;8.87;4.03;;;;;;;;;;5049004;28;20683;-73
2021/07/02 00:28:17;;;;;;;7.63;4.40;;;;;;;;;;5049476;28;20209;-73
2021/07/02 00:30:44;;;;;;;7.40;4.33;;;;;;;;;;5050927;28;20290;-73
2021/07/02 00:33:11;;;;;;;10.90;4.60;;;;;;;;;;5050094;28;20209;-74
2021/07/02 00:35:41;;;;;;;7.47;4.93;;;;;;;;;;5049209;28;20216;-73
2021/07/02 00:38:08;;;;;;;9.27;4.90;;;;;;;;;;5050427;28;20675;-74
2021/07/02 00:40:35;;;;;;;9.33;5.13;;;;;;;;;;5049105;28;20200;-73
2021/07/02 00:43:02;;;;;;;9.87;5.80;;;;;;;;;;5046806;28;20294;-74
2021/07/02 00:45:29;;;;;;;8.33;4.83;;;;;;;;;;5049890;28;20230;-75
2021/07/02 00:47:56;;;;;;;9.43;6.10;;;;;;;;;;5046850;28;20203;-73
2021/07/02 00:50:24;;;;;;;13.60;5.90;;;;;;;;;;5047867;28;20739;-74
2021/07/02 00:52:52;;;;;;;10.43;6.17;;;;;;;;;;5045729;28;20361;-73
2021/07/02 00:55:19;;;;;;;11.00;6.33;;;;;;;;;;5050087;28;20654;-73
2021/07/02 00:57:47;;;;;;;12.93;6.50;;;;;;;;;;5050259;28;20202;-74
2021/07/02 01:00:15;;;;;;;10.07;6.23;;;;;;;;;;5048184;28;20194;-73
2021/07/02 01:02:42;;;;;;;17.30;7.40;;;;;;;;;;5047661;28;20221;-73
2021/07/02 01:05:10;;;;;;;15.53;7.10;;;;;;;;;;5045899;28;20602;-73
2021/07/02 01:07:37;;;;;;;15.00;6.70;;;;;;;;;;5047789;28;20223;-73
2021/07/02 01:10:06;;;;;;;12.83;7.37;;;;;;;;;;5049178;28;20215;-74
2021/07/02 01:12:33;;;;;;;14.50;8.20;;;;;;;;;;5048256;28;20648;-74
2021/07/02 01:15:00;;;;;;;14.23;7.80;;;;;;;;;;5044934;28;20227;-73
2021/07/02 01:17:27;;;;;;;16.13;7.90;;;;;;;;;;5048740;28;20203;-75
2021/07/02 01:19:55;;;;;;;16.60;8.97;;;;;;;;;;5047327;28;20628;-73
2021/07/02 01:22:25;;;;;;;17.73;9.43;;;;;;;;;;5048030;28;20297;-74
2021/07/02 01:24:53;;;;;;;19.03;9.53;;;;;;;;;;5046278;28;20310;-73
2021/07/02 01:27:20;;;;;;;19.60;9.77;;;;;;;;;;5046673;28;20607;-75
2021/07/02 01:29:48;;;;;;;18.50;9.93;;;;;;;;;;5050787;28;20210;-75
2021/07/02 01:32:15;;;;;;;23.70;9.83;;;;;;;;;;5045326;28;20203;-74
2021/07/02 01:34:43;;;;;;;18.20;8.37;;;;;;;;;;5047926;28;20233;-73
2021/07/02 01:37:11;;;;;;;18.80;9.23;;;;;;;;;;5045762;28;20612;-75
2021/07/02 01:39:40;;;;;;;17.73;9.80;;;;;;;;;;5046805;28;20199;-74
2021/07/02 01:42:07;;;;;;;19.20;9.50;;;;;;;;;;5047038;28;20218;-74
2021/07/02 01:44:35;;;;;;;18.57;9.23;;;;;;;;;;5045953;28;20718;-75
2021/07/02 01:47:02;;;;;;;19.57;10.00;;;;;;;;;;5045369;28;20229;-74
2021/07/02 01:49:29;;;;;;;25.60;10.87;;;;;;;;;;5047512;28;20207;-75
2021/07/02 01:51:56;;;;;;;25.63;10.80;;;;;;;;;;5047634;28;20207;-74
2021/07/02 01:54:23;;;;;;;21.83;10.57;;;;;;;;;;5049154;28;20737;-74
2021/07/02 01:56:52;;;;;;;19.90;10.57;;;;;;;;;;5047792;28;20202;-73
2021/07/02 01:59:20;;;;;;;23.17;11.13;;;;;;;;;;5048405;28;20202;-73
2021/07/02 02:06:51;;;;;;;30.30;11.80;;;;;;;;;;5073037;28;20234;-74
2021/07/02 02:09:18;;;;;;;21.00;9.13;;;;;;;;;;5074854;28;20202;-74
2021/07/02 02:11:46;;;;;;;25.27;10.30;;;;;;;;;;5075529;28;20680;-74
2021/07/02 02:14:14;;;;;;;20.70;10.13;;;;;;;;;;5076016;28;20288;-74
2021/07/02 02:16:42;;;;;;;23.27;10.60;;;;;;;;;;5078887;28;20197;-74
2021/07/02 02:19:09;;;;;;;21.83;10.43;;;;;;;;;;5077405;28;20206;-74
2021/07/02 02:21:37;;;;;;;24.63;11.23;;;;;;;;;;5079232;28;20213;-74
2021/07/02 02:24:04;;;;;;;23.87;11.83;;;;;;;;;;5075813;28;20370;-74
2021/07/02 02:26:31;;;;;;;28.70;11.80;;;;;;;;;;5078239;28;20223;-74
2021/07/02 02:28:58;;;;;;;24.83;11.57;;;;;;;;;;5078354;28;20297;-74
2021/07/02 02:31:27;;;;;;;25.50;12.07;;;;;;;;;;5078999;28;20210;-74
2021/07/02 02:33:54;;;;;;;23.40;11.90;;;;;;;;;;5078908;28;20225;-74
2021/07/02 02:36:21;;;;;;;30.57;12.87;;;;;;;;;;5078264;28;20218;-74
2021/07/02 02:38:48;;;;;;;28.47;11.90;;;;;;;;;;5076398;28;20683;-74
2021/07/02 02:41:16;;;;;;;24.97;12.47;;;;;;;;;;5080102;28;20205;-74
2021/07/02 02:43:43;;;;;;;29.37;13.17;;;;;;;;;;5076887;28;20224;-74
2021/07/02 02:46:10;;;;;;;30.70;13.20;;;;;;;;;;5080680;28;20222;-74
2021/07/02 02:48:38;;;;;;;29.97;13.53;;;;;;;;;;5079284;28;20297;-74
2021/07/02 02:51:06;;;;;;;25.93;12.33;;;;;;;;;;5077671;28;20229;-74
2021/07/02 02:53:33;;;;;;;30.83;12.97;;;;;;;;;;5079648;28;20575;-74
2021/07/02 02:56:00;;;;;;;29.87;12.70;;;;;;;;;;5080916;28;20257;-74
2021/07/02 02:58:27;;;;;;;28.00;13.00;;;;;;;;;;5079070;28;20857;-74
2021/07/02 03:00:54;;;;;;;29.13;12.77;;;;;;;;;;5078615;28;20221;-74
2021/07/02 03:03:21;;;;;;;28.53;12.40;;;;;;;;;;5078212;28;20205;-74
2021/07/02 03:05:50;;;;;;;25.57;12.80;;;;;;;;;;5078266;28;20577;-74
2021/07/02 03:08:17;;;;;;;30.37;13.13;;;;;;;;;;5078476;28;20209;-74
2021/07/02 03:10:44;;;;;;;25.57;13.00;;;;;;;;;;5078754;28;20229;-74
2021/07/02 03:13:12;;;;;;;31.67;12.50;;;;;;;;;;5078787;28;20193;-74
2021/07/02 03:15:39;;;;;;;32.73;13.20;;;;;;;;;;5078250;28;20230;-73
2021/07/02 03:18:06;;;;;;;34.50;13.37;;;;;;;;;;5078027;28;20198;-73
2021/07/02 03:20:33;;;;;;;32.03;13.87;;;;;;;;;;5076170;28;20205;-73
2021/07/02 03:23:02;;;;;;;35.37;14.07;;;;;;;;;;5078287;28;20301;-73
2021/07/02 03:25:29;;;;;;;25.83;12.77;;;;;;;;;;5079232;28;20316;-73
2021/07/02 03:27:56;;;;;;;30.87;13.53;;;;;;;;;;5079384;28;20687;-73
2021/07/02 03:30:23;;;;;;;33.90;14.40;;;;;;;;;;5079733;28;20194;-73
2021/07/02 03:32:51;;;;;;;26.70;12.43;;;;;;;;;;5078305;28;20280;-73
2021/07/02 03:35:18;;;;;;;31.70;13.30;;;;;;;;;;5078005;28;20217;-73
2021/07/02 03:37:45;;;;;;;35.10;13.97;;;;;;;;;;5079617;28;20288;-73
2021/07/02 03:40:14;;;;;;;37.23;14.13;;;;;;;;;;5075796;28;20213;-73
2021/07/02 03:42:41;;;;;;;34.40;13.60;;;;;;;;;;5079192;28;20208;-74
2021/07/02 03:45:09;;;;;;;31.13;13.20;;;;;;;;;;5079878;28;20222;-74
2021/07/02 03:47:36;;;;;;;31.80;13.40;;;;;;;;;;5081193;28;20217;-75
2021/07/02 03:50:03;;;;;;;32.13;13.57;;;;;;;;;;5081843;28;20293;-74
2021/07/02 03:52:30;;;;;;;32.80;13.07;;;;;;;;;;5080801;28;20228;-74
2021/07/02 03:54:57;;;;;;;31.17;13.17;;;;;;;;;;5083533;28;20221;-74
2021/07/02 03:57:26;;;;;;;30.90;13.10;;;;;;;;;;5086232;28;20655;-74
2021/07/02 03:59:53;;;;;;;29.87;13.47;;;;;;;;;;5083021;28;20259;-75
2021/07/02 04:02:21;;;;;;;31.40;13.57;;;;;;;;;;5083084;28;20280;-74
2021/07/02 04:04:48;;;;;;;28.17;13.30;;;;;;;;;;5083356;28;20330;-74
2021/07/02 04:07:15;;;;;;;27.63;13.20;;;;;;;;;;5081649;28;20707;-74
2021/07/02 04:09:42;;;;;;;35.47;13.30;;;;;;;;;;5089016;28;20201;-73
2021/07/02 04:12:12;;;;;;;30.90;13.47;;;;;;;;;;5098517;28;20305;-73
2021/07/02 04:14:41;;;;;;;27.37;12.80;;;;;;;;;;5088887;28;20231;-72
2021/07/02 04:17:08;;;;;;;28.30;12.33;;;;;;;;;;5104149;28;20324;-73
2021/07/02 04:19:36;;;;;;;34.80;13.43;;;;;;;;;;5096554;28;20225;-74
2021/07/02 04:22:03;;;;;;;35.53;13.73;;;;;;;;;;5082107;28;20713;-73
2021/07/02 04:24:31;;;;;;;28.93;12.90;;;;;;;;;;5079633;28;20706;-74
2021/07/02 04:26:58;;;;;;;30.80;13.57;;;;;;;;;;5078583;28;20221;-74
2021/07/02 04:29:26;;;;;;;37.23;14.50;;;;;;;;;;5080047;28;20308;-75
2021/07/02 04:31:54;;;;;;;32.80;12.40;;;;;;;;;;5081767;28;20628;-79
2021/07/02 04:34:22;;;;;;;36.67;13.60;;;;;;;;;;5081843;28;20333;-74
2021/07/02 04:36:49;;;;;;;34.37;15.07;;;;;;;;;;5084338;28;20205;-75
2021/07/02 04:39:18;;;;;;;33.57;13.63;;;;;;;;;;5082565;28;20685;-75
2021/07/02 04:41:45;;;;;;;32.43;13.53;;;;;;;;;;5079665;28;20652;-74
2021/07/02 04:44:13;;;;;;;33.27;14.60;;;;;;;;;;5079838;28;20284;-76
2021/07/02 04:46:40;;;;;;;28.83;12.87;;;;;;;;;;5083166;28;20587;-76
2021/07/02 04:49:08;;;;;;;32.03;14.77;;;;;;;;;;5080217;28;20671;-74
2021/07/02 04:51:35;;;;;;;33.00;14.30;;;;;;;;;;5080464;28;20749;-74
2021/07/02 04:54:03;;;;;;;31.40;14.23;;;;;;;;;;5079384;28;20198;-75
2021/07/02 04:56:30;;;;;;;26.97;12.47;;;;;;;;;;5078625;28;20194;-75
2021/07/02 04:58:58;;;;;;;28.83;13.30;;;;;;;;;;5081253;28;20294;-75
2021/07/02 05:01:26;;;;;;;27.10;13.37;;;;;;;;;;5081371;28;20225;-75
2021/07/02 05:03:53;;;;;;;30.10;14.90;;;;;;;;;;5081055;28;20206;-75
2021/07/02 05:06:21;;;;;;;31.87;15.10;;;;;;;;;;5081313;28;20237;-74
2021/07/02 05:08:48;;;;;;;34.30;14.57;;;;;;;;;;5081524;28;20589;-75
2021/07/02 05:11:16;;;;;;;32.17;15.80;;;;;;;;;;5081521;28;20313;-75
2021/07/02 05:13:43;;;;;;;30.97;15.60;;;;;;;;;;5078582;28;20293;-75
2021/07/02 05:16:11;;;;;;;26.97;12.97;;;;;;;;;;5079329;28;20214;-75
2021/07/02 05:18:38;;;;;;;23.07;12.87;;;;;;;;;;5080111;28;20202;-75
2021/07/02 05:21:06;;;;;;;24.70;12.83;;;;;;;;;;5079319;28;20206;-76
2021/07/02 05:23:34;;;;;;;24.03;11.83;;;;;;;;;;5080055;28;20202;-76
2021/07/02 05:26:02;;;;;;;19.63;10.10;;;16.50;99.90;;;;;;5076931;28;20232;-75
2021/07/02 05:28:29;;;;;;;22.70;12.10;;;;;;;;;;5074820;28;20270;-75
2021/07/02 05:30:56;;;;;;;20.90;11.13;;;;;;;;;;5077702;28;20326;-76
2021/07/02 05:33:24;;;;;;;25.33;11.43;;;;;;;;;;5077237;28;20206;-76
2021/07/02 05:35:51;;;;;;;15.47;9.20;;;;;;;;;;5078348;28;20217;-76
2021/07/02 05:38:18;;;;;;;19.87;10.33;;;;;;;;;;5077248;28;20198;-77
2021/07/02 05:40:46;;;;;;;18.73;11.23;;;;;;;;;;5077058;28;20231;-77
2021/07/02 05:43:14;;;;;;;14.30;8.67;;;;;;;;;;5077334;28;20210;-75
2021/07/02 05:45:42;;;;;;;20.13;10.70;;;;;;;;;;5075489;28;20229;-76
2021/07/02 05:48:09;;;;;;;11.57;7.27;;;;;;;;;;5078262;28;20226;-76
2021/07/02 05:50:37;;;;;;;19.90;10.57;;;;;;;;;;5076481;28;20747;-76
2021/07/02 05:53:04;;;;;;;23.40;10.97;;;;;;;;;;5074450;28;20206;-75
2021/07/02 05:55:31;;;;;;;23.10;10.50;;;;;;;;;;5068404;28;20226;-77
2021/07/02 05:58:00;;;;;;;20.97;10.13;;;;;;;;;;5072576;28;20206;-77
2021/07/02 06:00:28;;;;;;;17.43;9.40;;;;;;;;;;5071939;28;20285;-77
2021/07/02 06:02:55;;;;;;;16.33;8.33;;;;;;;;;;5073338;28;20205;-77
2021/07/02 06:05:23;;;;;;;16.90;9.07;;;;;;;;;;5069762;28;20237;-77
2021/07/02 06:07:51;;;;;;;20.03;8.67;;;;;;;;;;5071515;28;20230;-76
2021/07/02 06:10:20;;;;;;;13.40;8.27;;;;;;;;;;5072310;28;20286;-76
2021/07/02 06:12:47;;;;;;;16.37;8.33;;;;;;;;;;5074031;28;20567;-76
2021/07/02 06:15:17;;;;;;;15.50;9.33;;;;;;;;;;5073430;28;20218;-76
2021/07/02 06:17:45;;;;;;;15.80;7.70;;;;;;;;;;5075787;28;20694;-76
2021/07/02 06:20:13;;;;;;;13.07;6.80;;;;;;;;;;5069581;28;20202;-76
2021/07/02 06:22:40;;;;;;;16.80;8.37;;;;;;;;;;5071245;28;20206;-76
2021/07/02 06:25:09;;;;;;;19.30;9.13;;;;;;;;;;5065782;28;20295;-77
2021/07/02 06:27:36;;;;;;;17.27;8.10;;;;;;;;;;5064625;28;20214;-76
2021/07/02 06:30:03;;;;;;;17.77;8.63;;;;;;;;;;5071621;28;20300;-77
2021/07/02 06:32:32;;;;;;;15.97;7.53;;;;;;;;;;5074432;28;20213;-77
2021/07/02 06:34:59;;;;;;;17.90;8.77;;;;;;;;;;5072801;28;20313;-77
2021/07/02 06:37:26;;;;;;;18.83;8.47;;;;;;;;;;5068240;28;20204;-76
2021/07/02 06:39:53;;;;;;;18.40;8.57;;;;;;;;;;5068626;28;20210;-77
2021/07/02 06:42:20;;;;;;;17.93;7.93;;;;;;;;;;5071919;28;20214;-74
2021/07/02 06:44:47;;;;;;;14.80;7.93;;;;;;;;;;5071415;28;20220;-75
2021/07/02 06:47:15;;;;;;;14.13;7.93;;;;;;;;;;5068371;28;20320;-74
2021/07/02 06:49:43;;;;;;;16.70;8.57;;;;;;;;;;5074143;28;20206;-75
2021/07/02 06:52:10;;;;;;;17.27;8.93;;;;;;;;;;5071104;28;20284;-76
2021/07/02 06:54:37;;;;;;;14.87;8.27;;;;;;;;;;5074426;28;20229;-76
2021/07/02 06:57:08;;;;;;;17.70;8.27;;;;;;;;;;5084026;28;20212;-76
2021/07/02 06:59:37;;;;;;;13.03;7.43;;;;;;;;;;5073223;28;20694;-75
2021/07/02 07:02:06;;;;;;;22.67;8.00;;;;;;;;;;5084307;28;20214;-76
2021/07/02 07:04:35;;;;;;;15.10;7.10;;;;;;;;;;5083312;28;20639;-75
2021/07/02 07:07:04;;;;;;;14.63;6.90;;;;;;;;;;5071889;28;20210;-77
2021/07/02 07:09:31;;;;;;;12.03;6.43;;;;;;;;;;5079874;28;20226;-76
2021/07/02 07:11:59;;;;;;;10.33;5.70;;;;;;;;;;5075421;28;20289;-75
2021/07/02 07:14:29;;;;;;;16.50;7.20;;;;;;;;;;5079046;28;20226;-75
2021/07/02 07:16:58;;;;;;;14.17;6.63;;;;;;;;;;5074779;28;20688;-75
2021/07/02 07:19:27;;;;;;;14.17;6.47;;;;;;;;;;5073212;28;20198;-75
2021/07/02 07:21:54;;;;;;;11.13;5.10;;;;;;;;;;5076817;28;20224;-74
2021/07/02 07:24:23;;;;;;;10.27;5.63;;;;;;;;;;5076006;28;20311;-74
2021/07/02 07:26:50;;;;;;;11.40;5.60;;;;;;;;;;5076382;28;20622;-74
2021/07/02 07:29:17;;;;;;;10.13;5.80;;;;;;;;;;5077298;28;20218;-74
2021/07/02 07:31:44;;;;;;;8.97;5.20;;;;;;;;;;5077589;28;20859;-75
2021/07/02 07:34:12;;;;;;;13.13;5.53;;;;;;;;;;5078611;28;20577;-75
2021/07/02 07:36:39;;;;;;;11.57;5.53;;;;;;;;;;5081927;28;20226;-75
2021/07/02 07:39:07;;;;;;;13.77;5.90;;;;;;;;;;5078250;28;20288;-74
2021/07/02 07:41:35;;;;;;;12.40;5.97;;;;;;;;;;5081787;28;20202;-75
2021/07/02 07:44:02;;;;;;;17.87;6.00;;;;;;;;;;5077634;28;20762;-75
2021/07/02 07:46:30;;;;;;;12.67;5.53;;;;;;;;;;5079346;28;20588;-75
2021/07/02 07:48:57;;;;;;;11.87;6.07;;;;;;;;;;5079248;28;20636;-75
2021/07/02 07:51:34;;;;;;;12.67;5.60;;;;;;;;;;5085738;28;20738;-75
2021/07/02 07:54:01;;;;;;;14.03;6.60;;;;;;;;;;5085634;28;20306;-77
2021/07/02 07:56:29;;;;;;;11.47;6.07;;;;;;;;;;5082647;28;20289;-75
2021/07/02 07:58:58;;;;;;;8.40;4.93;;;;;;;;;;5081097;28;20209;-75
2021/07/02 08:01:26;;;;;;;12.50;6.20;;;;;;;;;;5078380;28;20647;-75
2021/07/02 08:06:24;;;;;;;11.50;5.50;;;;;;;;;;5092079;28;20289;-75
2021/07/02 08:08:53;;;;;;;11.70;5.57;;;;;;;;;;5096576;28;20245;-75
2021/07/02 08:11:20;;;;;;;12.47;5.60;;;;;;;;;;5102446;27;20215;-74
2021/07/02 08:13:47;;;;;;;8.80;4.93;;;;;;;;;;5097894;28;20296;-75
2021/07/02 08:16:16;;;;;;;10.03;5.53;;;;;;;;;;5096466;28;21153;-76
2021/07/02 08:18:43;;;;;;;6.83;4.60;;;;;;;;;;5098355;28;20197;-75
2021/07/02 08:21:10;;;;;;;11.37;5.53;;;;;;;;;;5093212;28;20212;-76
2021/07/02 08:23:37;;;;;;;12.40;5.40;;;;;;;;;;5092844;28;20697;-76
2021/07/02 08:26:05;;;;;;;10.67;5.43;;;;;;;;;;5088671;28;20285;-76
2021/07/02 08:31:18;;;;;;;13.03;5.90;;;24.50;99.90;;;;;;5090774;28;20576;-76
2021/07/02 08:33:44;;;;;;;10.47;5.10;;;23.50;99.90;;;;;;5089490;28;20201;-76
2021/07/02 08:36:11;;;;;;;11.53;5.47;;;23.10;99.90;;;;;;5089382;28;20587;-77
2021/07/02 08:38:38;;;;;;;11.93;5.23;;;;;;;;;;5095414;28;20198;-77
2021/07/02 08:41:07;;;;;;;11.37;5.10;;;24.30;99.90;;;;;;5093339;28;20214;-77
2021/07/02 08:43:34;;;;;;;9.13;4.50;;;25.90;99.90;;;;;;5096315;28;20207;-77
2021/07/02 08:46:03;;;;;;;9.83;5.07;;;25.70;99.90;;;;;;5092925;28;20253;-77
2021/07/02 08:48:31;;;;;;;14.07;5.37;;;26.10;99.90;;;;;;5097752;28;20219;-77
2021/07/02 08:50:58;;;;;;;10.03;4.33;;;26.20;99.90;;;;;;5096344;28;20207;-77
2021/07/02 08:53:26;;;;;;;9.10;4.50;;;27.30;99.90;;;;;;5091261;28;20691;-76
2021/07/02 08:55:53;;;;;;;9.67;4.33;;;26.10;99.90;;;;;;5097494;28;20232;-77
2021/07/02 08:58:22;;;;;;;10.70;4.33;;;25.80;99.90;;;;;;5095707;28;20203;-77
2021/07/02 09:00:49;;;;;;;10.17;4.47;;;;;;;;;;5095195;28;20432;-77
2021/07/02 09:03:27;;;;;;;8.27;4.67;;;;;;;;;;5094522;28;20244;-76
2021/07/02 09:05:55;;;;;;;8.30;4.43;;;;;;;;;;5092104;28;20242;-76
2021/07/02 09:08:24;;;;;;;10.27;4.83;;;24.70;99.90;;;;;;5094234;28;20228;-76
2021/07/02 09:10:51;;;;;;;7.60;4.23;;;22.20;99.90;;;;;;5099603;28;20198;-77
2021/07/02 09:13:18;;;;;;;9.77;4.73;;;;;;;;;;5097288;28;20292;-77
2021/07/02 09:15:46;;;;;;;9.90;4.37;;;;;;;;;;5091720;28;20220;-77
2021/07/02 09:18:13;;;;;;;9.80;4.80;;;;;;;;;;5094568;28;20632;-76
2021/07/02 09:20:41;;;;;;;7.47;4.30;;;;;;;;;;5094384;28;20197;-77
2021/07/02 09:23:10;;;;;;;7.37;4.57;;;;;;;;;;5095689;28;20209;-77
2021/07/02 09:25:38;;;;;;;9.37;4.43;;;;;;;;;;5095110;28;20305;-76
2021/07/02 09:28:07;;;;;;;12.47;4.70;;;;;;;;;;5092740;28;20202;-76
2021/07/02 09:30:35;;;;;;;11.50;4.40;;;;;;;;;;5099599;28;20235;-76
2021/07/02 09:33:03;;;;;;;7.97;4.43;;;;;;;;;;5089506;28;20210;-76
2021/07/02 09:35:32;;;;;;;6.73;4.43;;;;;;;;;;5095524;28;20308;-77
2021/07/02 09:38:00;;;;;;;10.03;4.47;;;;;;;;;;5092418;28;20201;-77
2021/07/02 09:40:30;;;;;;;5.33;3.97;;;;;;;;;;5088957;28;20213;-75
2021/07/02 09:43:05;;;;;;;6.07;3.90;;;;;;;;;;5088840;28;20237;-76
2021/07/02 09:45:33;;;;;;;5.80;3.90;;;;;;;;;;5095620;28;20233;-76
2021/07/02 09:48:07;;;;;;;8.50;3.83;;;;;;;;;;5093188;28;20209;-76
2021/07/02 09:50:34;;;;;;;5.73;3.87;;;;;;;;;;5097020;28;20288;-76
2021/07/02 09:53:02;;;;;;;8.13;3.87;;;;;;;;;;5099699;28;20260;-76
2021/07/02 09:55:32;;;;;;;6.23;3.50;;;;;;;;;;5096254;28;20608;-77
2021/07/02 09:58:06;;;;;;;4.70;3.63;;;;;;;;;;5092096;28;20299;-77
2021/07/02 10:00:33;;;;;;;4.63;3.10;;;;;;;;;;5093431;28;20214;-76
2021/07/02 10:03:02;;;;;;;6.03;3.50;;;;;;;;;;5092407;28;20207;-76
2021/07/02 10:05:29;;;;;;;6.13;3.63;;;;;;;;;;5093192;28;20286;-77
2021/07/02 10:08:01;;;;;;;4.80;3.40;;;;;;;;;;5098155;28;20236;-76
2021/07/02 10:10:28;;;;;;;4.27;3.30;;;;;;;;;;5102386;28;20798;-77
2021/07/02 10:12:58;;;;;;;4.60;3.37;;;;;;;;;;5097840;28;20542;-77
2021/07/02 10:15:25;;;;;;;5.63;3.53;;;;;;;;;;5097428;28;20233;-76
2021/07/02 10:17:53;;;;;;;6.33;3.43;;;;;;;;;;5092852;28;20209;-76
2021/07/02 10:20:21;;;;;;;5.07;3.10;;;;;;;;;;5089064;28;20301;-77
2021/07/02 10:22:48;;;;;;;6.73;3.40;;;;;;;;;;5093695;28;20212;-76
2021/07/02 10:25:18;;;;;;;5.40;3.20;;;;;;;;;;5093973;28;20713;-76
2021/07/02 10:27:46;;;;;;;4.60;2.83;;;;;;;;;;5089572;28;20209;-76
2021/07/02 10:30:15;;;;;;;5.33;3.20;;;;;;;;;;5092398;28;20601;-77
2021/07/02 10:32:42;;;;;;;4.97;3.13;;;;;;;;;;5091857;28;20205;-76
2021/07/02 10:35:14;;;;;;;5.07;3.00;;;;;;;;;;5098507;28;20366;-76
2021/07/02 10:37:42;;;;;;;4.40;2.93;;;;;;;;;;5091033;28;20590;-76
2021/07/02 10:40:28;;;;;;;4.83;3.03;;;;;;;;;;5094039;28;20217;-76
2021/07/02 10:43:11;;;;;;;7.77;3.43;;;;;;;;;;5088173;27;20248;-76
2021/07/02 10:45:40;;;;;;;6.83;2.90;;;;;;;;;;5093463;28;20308;-76
2021/07/02 10:48:08;;;;;;;5.20;3.33;;;;;;;;;;5089503;28;20211;-76
2021/07/02 10:50:35;;;;;;;6.33;3.20;;;;;;;;;;5092080;28;20225;-77
2021/07/02 10:53:17;;;;;;;5.53;3.13;;;;;;;;;;5090581;28;20327;-76
2021/07/02 10:55:44;;;;;;;4.73;3.07;;;;;;;;;;5094682;28;20225;-76
2021/07/02 10:58:11;;;;;;;5.17;2.90;;;;;;;;;;5089012;28;20296;-76
2021/07/02 11:01:07;;;;;;;7.17;3.17;;;;;;;;;;5087358;28;20207;-76
2021/07/02 11:03:34;;;;;;;4.17;3.20;;;;;;;;;;5093721;28;20266;-76
2021/07/02 11:06:10;;;;;;;6.37;3.30;;;;;;;;;;5088120;28;20233;-76
2021/07/02 11:08:47;;;;;;;3.60;2.97;;;;;;;;;;5092936;28;20224;-76
2021/07/02 11:11:14;;;;;;;4.70;3.00;;;;;;;;;;5091366;28;20571;-76
2021/07/02 11:13:59;;;;;;;6.97;3.10;;;;;;;;;;5092656;28;20213;-77
2021/07/02 11:16:28;;;;;;;4.80;3.20;;;;;;;;;;5076195;28;20297;-76
2021/07/02 11:18:55;;;;;;;5.37;3.00;;;;;;;;;;5087861;28;20575;-77
2021/07/02 11:21:22;;;;;;;5.13;3.17;;;;;;;;;;5100673;28;20667;-76
2021/07/02 11:23:50;;;;;;;5.40;3.00;;;;;;;;;;5090377;28;20204;-76
2021/07/02 11:26:42;;;;;;;5.50;3.13;;;;;;;;;;5091776;28;20283;-76
2021/07/02 11:29:09;;;;;;;5.90;3.47;;;;;;;;;;5090081;28;20752;-76
2021/07/02 11:31:39;;;;;;;5.33;3.50;;;;;;;;;;5092895;28;20305;-76
2021/07/02 11:34:17;;;;;;;5.50;3.70;;;;;;;;;;5094952;28;20734;-76
2021/07/02 11:37:03;;;;;;;9.07;3.50;;;;;;;;;;5093195;28;20257;-77
2021/07/02 11:39:30;;;;;;;6.17;3.03;;;;;;;;;;5095349;28;20288;-76
2021/07/02 11:42:07;;;;;;;4.70;3.00;;;;;;;;;;5091797;28;20643;-76
2021/07/02 11:44:35;;;;;;;5.17;3.50;;;;;;;;;;5088806;28;20258;-77
2021/07/02 11:47:03;;;;;;;5.33;3.20;;;;;;;;;;5087647;28;20805;-76
2021/07/02 11:49:31;;;;;;;7.30;3.53;;;;;;;;;;5089321;28;20774;-76
2021/07/02 11:51:58;;;;;;;5.20;3.00;;;;;;;;;;5088669;28;20701;-76
2021/07/02 11:54:25;;;;;;;8.33;3.53;;;;;;;;;;5087977;28;20650;-77
2021/07/02 11:56:52;;;;;;;5.73;3.13;;;;;;;;;;5093408;28;20245;-76
2021/07/02 11:59:21;;;;;;;5.57;3.53;;;;;;;;;;5096548;28;20205;-76
2021/07/02 12:01:51;;;;;;;4.90;3.40;;;;;;;;;;5091131;28;20300;-77
2021/07/02 12:04:20;;;;;;;6.87;3.03;;;;;;;;;;5087293;28;20283;-76
2021/07/02 12:06:48;;;;;;;6.23;3.23;;;;;;;;;;5092303;28;20237;-77
2021/07/02 12:09:16;;;;;;;4.57;3.03;;;;;;;;;;5090475;28;20232;-76
2021/07/02 12:11:45;;;;;;;4.83;3.27;;;;;;;;;;5096176;28;20201;-76
2021/07/02 12:14:13;;;;;;;5.03;3.07;;;;;;;;;;5094601;28;20259;-77
2021/07/02 12:16:42;;;;;;;4.93;3.07;;;;;;;;;;5094841;28;20205;-76
2021/07/02 12:19:12;;;;;;;5.17;3.03;;;;;;;;;;5095560;28;20202;-76
2021/07/02 12:21:40;;;;;;;8.07;3.40;;;;;;;;;;5091801;28;20213;-76
2021/07/02 12:24:09;;;;;;;7.03;3.57;;;;;;;;;;5098991;28;20676;-75
2021/07/02 12:26:36;;;;;;;4.80;2.83;;;;;;;;;;5097933;28;20209;-76
2021/07/02 12:29:06;;;;;;;5.03;3.23;;;;;;;;;;5098367;28;20312;-77
2021/07/02 12:31:35;;;;;;;3.73;2.77;;;;;;;;;;5092702;28;20300;-76
2021/07/02 12:34:02;;;;;;;6.63;3.50;;;;;;;;;;5098350;28;20687;-77
2021/07/02 12:36:30;;;;;;;6.67;3.20;;;;;;;;;;5093426;28;20269;-76
2021/07/02 12:39:14;;;;;;;5.33;3.13;;;;;;;;;;5090706;28;20213;-77
2021/07/02 12:41:43;;;;;;;5.10;3.23;;;;;;;;;;5092089;28;20241;-77
2021/07/02 12:44:11;;;;;;;5.00;3.10;;;;;;;;;;5092558;28;20300;-76
2021/07/02 12:46:38;;;;;;;4.97;3.03;;;;;;;;;;5096562;28;20211;-76
2021/07/02 12:49:22;;;;;;;6.60;3.70;;;;;;;;;;5094653;28;20292;-77
2021/07/02 12:54:50;;;;;;;5.37;3.50;;;;;;;;;;5093699;28;20302;-77
2021/07/02 12:57:20;;;;;;;6.17;3.80;;;;;;;;;;5091150;28;20217;-76
2021/07/02 12:59:47;;;;;;;5.97;3.17;;;;;;;;;;5090761;28;20198;-77
2021/07/02 13:02:23;;;;;;;6.67;3.37;;;;;;;;;;5098839;28;20241;-76
2021/07/02 13:04:50;;;;;;;7.83;3.30;;;;;;;;;;5094604;28;20322;-76
2021/07/02 13:07:17;;;;;;;5.83;3.57;;;;;;;;;;5093005;28;20212;-77
2021/07/02 13:09:46;;;;;;;5.10;3.23;;;;;;;;;;5094047;28;20223;-76
2021/07/02 13:12:14;;;;;;;8.97;3.60;;;;;;;;;;5094735;28;20235;-76
2021/07/02 13:14:42;;;;;;;7.37;3.60;;;;;;;;;;5092536;28;20312;-77
2021/07/02 13:17:10;;;;;;;7.80;3.57;;;;;;;;;;5093665;28;20221;-77
2021/07/02 13:19:37;;;;;;;6.67;3.20;;;;;;;;;;5092587;28;20251;-76
2021/07/02 13:22:14;;;;;;;5.47;3.40;;;;;;;;;;5093293;28;20218;-77
2021/07/02 13:24:41;;;;;;;7.53;3.20;;;23.20;99.90;;;;;;5098708;28;20567;-76
2021/07/02 13:27:11;;;;;;;4.43;2.80;;;23.10;99.90;;;;;;5093693;28;20328;-76
2021/07/02 13:29:38;;;;;;;5.47;3.00;;;23.20;99.90;;;;;;5088143;28;20245;-76
2021/07/02 13:32:07;;;;;;;5.17;3.23;;;23.10;99.90;;;;;;5093417;28;20292;-77
2021/07/02 13:34:41;;;;;;;5.03;3.20;;;23.40;99.90;;;;;;5090639;28;20222;-77
2021/07/02 13:37:09;;;;;;;8.07;3.30;;;23.50;99.90;;;;;;5090744;28;20201;-76
2021/07/02 13:39:39;;;;;;;5.40;3.13;;;23.20;99.90;;;;;;5089524;28;20197;-76
2021/07/02 13:42:08;;;;;;;4.33;3.07;;;22.80;99.90;;;;;;5090635;28;20209;-76
2021/07/02 13:44:38;;;;;;;4.47;3.17;;;22.40;99.90;;;;;;5091214;28;20633;-76
2021/07/02 13:47:06;;;;;;;5.90;3.13;;;22.30;99.90;;;;;;5096315;28;20292;-76
2021/07/02 13:49:34;;;;;;;6.10;3.07;;;22.20;99.90;;;;;;5090777;28;20252;-76
2021/07/02 13:52:02;;;;;;;5.00;2.80;;;22.00;99.90;;;;;;5096470;28;20216;-76
2021/07/02 13:54:30;;;;;;;4.37;3.00;;;22.00;99.90;;;;;;5096503;28;20744;-75
2021/07/02 13:56:57;;;;;;;5.93;2.70;;;22.20;99.90;;;;;;5096307;28;20675;-76
2021/07/02 13:59:25;;;;;;;3.87;2.43;;;22.40;99.90;;;;;;5093097;28;20563;-77
2021/07/02 14:01:54;;;;;;;3.77;2.80;;;22.30;99.90;;;;;;5093361;28;20209;-76
2021/07/02 14:04:21;;;;;;;4.13;2.50;;;22.30;99.90;;;;;;5092739;28;20264;-77
2021/07/02 14:06:48;;;;;;;6.27;3.17;;;22.20;99.90;;;;;;5093784;28;20296;-75
2021/07/02 14:09:17;;;;;;;4.30;2.73;;;22.50;99.90;;;;;;5094599;28;20678;-75
2021/07/02 14:11:45;;;;;;;7.37;2.77;;;22.80;99.90;;;;;;5093459;28;20229;-75
2021/07/02 14:14:12;;;;;;;6.13;2.50;;;22.90;99.90;;;;;;5090243;28;20586;-75
2021/07/02 14:16:39;;;;;;;3.83;2.60;;;23.00;99.90;;;;;;5096619;28;20206;-75
2021/07/02 14:19:08;;;;;;;4.50;2.40;;;23.00;99.90;;;;;;5094438;28;20682;-76
2021/07/02 14:21:37;;;;;;;4.67;2.70;;;23.00;99.90;;;;;;5092092;28;20288;-76
2021/07/02 14:24:05;;;;;;;4.40;2.43;;;22.70;99.90;;;;;;5090003;28;20731;-75
2021/07/02 14:26:31;;;;;;;4.50;2.33;;;23.00;99.90;;;;;;5090337;28;20194;-75
2021/07/02 14:28:58;;;;;;;4.70;2.50;;;23.10;99.90;;;;;;5087645;28;20247;-75
2021/07/02 14:31:25;;;;;;;4.43;2.70;;;23.30;99.90;;;;;;5090483;28;20423;-76
2021/07/02 14:33:53;;;;;;;5.10;2.57;;;23.40;99.90;;;;;;5093155;28;20280;-75
2021/07/02 14:36:21;;;;;;;7.17;2.57;;;23.30;99.90;;;;;;5088507;28;20213;-75